Time;durP1;ratioP1;P1;durP2;ratioP2;P2;SDS_P1;SDS_P2;PMS_P1;PMS_P2;Temp;Humidity;BMP_temperature;BMP_pressure;BME280_temperature;BME280_humidity;BME280_pressure;Samples;Min_cycle;Max_cycle;Signal;HPM_P1;HPM_P2
2022/04/17 00:00:55;;;;;;;5.35;2.75;;;10.20;74.40;;;;;;5050484;28;20025;-63
2022/04/17 00:03:24;;;;;;;7.45;3.40;;;10.20;74.20;;;;;;5051356;28;20028;-63
2022/04/17 00:05:51;;;;;;;10.80;3.40;;;10.20;74.40;;;;;;5051212;28;20040;-64
2022/04/17 00:08:17;;;;;;;7.53;3.10;;;10.10;74.60;;;;;;5052045;28;20017;-63
2022/04/17 00:10:45;;;;;;;5.63;2.80;;;10.10;74.70;;;;;;5051008;28;20025;-64
2022/04/17 00:13:11;;;;;;;7.65;3.25;;;10.10;74.70;;;;;;5051260;28;20139;-64
2022/04/17 00:15:36;;;;;;;7.32;3.40;;;10.10;74.90;;;;;;5052195;28;20029;-62
2022/04/17 00:18:02;;;;;;;6.75;3.47;;;10.00;75.10;;;;;;5050052;28;20410;-62
2022/04/17 00:20:27;;;;;;;9.82;3.90;;;10.00;75.40;;;;;;5051651;28;20056;-65
2022/04/17 00:22:53;;;;;;;8.10;3.15;;;9.90;75.70;;;;;;5052388;28;20033;-63
2022/04/17 00:25:18;;;;;;;7.72;3.28;;;9.90;76.30;;;;;;5052493;28;20029;-65
2022/04/17 00:27:44;;;;;;;7.55;3.80;;;9.90;75.90;;;;;;5052501;28;20045;-66
2022/04/17 00:30:10;;;;;;;6.50;3.50;;;9.80;76.30;;;;;;5052693;28;20036;-65
2022/04/17 00:32:36;;;;;;;5.47;3.50;;;9.80;76.70;;;;;;5052500;28;20021;-63
2022/04/17 00:35:07;;;;;;;7.97;3.92;;;9.80;76.80;;;;;;5052241;28;20070;-64
2022/04/17 00:37:33;;;;;;;7.22;3.42;;;9.70;76.70;;;;;;5052079;28;20020;-65
2022/04/17 00:39:58;;;;;;;7.20;3.35;;;9.70;77.00;;;;;;5052623;28;20499;-62
2022/04/17 00:42:24;;;;;;;5.72;3.17;;;9.60;77.20;;;;;;5050899;28;20028;-63
2022/04/17 00:44:49;;;;;;;9.00;4.20;;;9.60;77.30;;;;;;5052326;28;20036;-62
2022/04/17 00:47:18;;;;;;;8.77;4.00;;;9.60;77.40;;;;;;5052220;28;20395;-63
2022/04/17 00:49:45;;;;;;;6.80;3.40;;;9.50;77.60;;;;;;5053626;28;20028;-62
2022/04/17 00:52:11;;;;;;;10.25;3.92;;;9.40;77.90;;;;;;5054698;28;20032;-66
2022/04/17 00:54:44;;;;;;;8.48;3.67;;;9.40;78.30;;;;;;5055746;28;20037;-62
2022/04/17 00:57:12;;;;;;;11.68;4.18;;;9.40;78.30;;;;;;5055729;28;20408;-66
2022/04/17 00:59:42;;;;;;;9.13;3.92;;;9.30;78.30;;;;;;5055435;28;20055;-65
2022/04/17 01:02:08;;;;;;;8.52;3.78;;;9.30;78.60;;;;;;5055598;28;20056;-65
2022/04/17 01:04:34;;;;;;;11.05;3.80;;;9.20;78.60;;;;;;5055516;28;20124;-65
2022/04/17 01:06:59;;;;;;;8.20;3.83;;;9.20;78.50;;;;;;5055520;28;20460;-64
2022/04/17 01:09:25;;;;;;;11.18;4.00;;;9.20;78.60;;;;;;5055325;28;20032;-65
2022/04/17 01:11:52;;;;;;;7.95;4.07;;;9.10;79.00;;;;;;5054138;28;20025;-66
2022/04/17 01:14:20;;;;;;;8.73;3.90;;;9.10;79.10;;;;;;5053438;28;20028;-67
2022/04/17 01:16:46;;;;;;;9.82;4.18;;;9.10;79.50;;;;;;5036192;28;20013;-63
2022/04/17 01:19:12;;;;;;;8.63;4.00;;;9.00;79.40;;;;;;5047974;28;20036;-64
2022/04/17 01:21:39;;;;;;;7.90;3.72;;;9.00;79.70;;;;;;5055099;28;20028;-64
2022/04/17 01:26:58;;;;;;;8.57;4.28;;;8.90;80.00;;;;;;5065488;28;20055;-64
2022/04/17 01:29:38;;;;;;;9.15;4.40;;;8.90;80.20;;;;;;5062456;28;20017;-62
2022/04/17 01:32:06;;;;;;;9.10;4.50;;;8.80;80.50;;;;;;5055389;28;20035;-65
2022/04/17 01:34:32;;;;;;;8.98;4.28;;;8.80;81.10;;;;;;5054904;28;20025;-64
2022/04/17 01:36:59;;;;;;;9.40;4.65;;;8.80;81.10;;;;;;5052364;28;20025;-62
2022/04/17 01:39:25;;;;;;;9.45;4.45;;;8.80;81.50;;;;;;5046119;28;20051;-63
2022/04/17 01:41:51;;;;;;;11.77;5.05;;;8.70;81.80;;;;;;5053077;28;20071;-65
2022/04/17 01:44:17;;;;;;;10.93;4.32;;;8.70;82.10;;;;;;5053593;28;20028;-64
2022/04/17 01:46:44;;;;;;;10.13;4.88;;;8.70;82.30;;;;;;5069634;28;20021;-66
2022/04/17 01:49:11;;;;;;;9.82;4.75;;;8.60;82.40;;;;;;5063621;28;20472;-61
2022/04/17 01:51:38;;;;;;;12.18;4.70;;;8.60;82.80;;;;;;5054740;28;20021;-62
2022/04/17 01:54:07;;;;;;;9.98;4.35;;;8.60;83.10;;;;;;5050367;28;20033;-63
2022/04/17 01:56:34;;;;;;;8.25;4.57;;;8.60;83.30;;;;;;5041935;28;20460;-63
2022/04/17 01:59:00;;;;;;;14.88;5.30;;;8.50;83.50;;;;;;5054490;28;20021;-63
2022/04/17 02:01:26;;;;;;;11.63;5.13;;;8.50;83.50;;;;;;5038242;28;20017;-66
2022/04/17 02:03:52;;;;;;;10.18;4.68;;;8.50;83.70;;;;;;5047700;28;20025;-66
2022/04/17 02:06:17;;;;;;;12.63;5.13;;;8.40;83.90;;;;;;5054157;28;20059;-63
2022/04/17 02:08:44;;;;;;;13.68;5.35;;;8.50;84.30;;;;;;5054094;28;20025;-64
2022/04/17 02:11:10;;;;;;;14.05;5.25;;;8.40;84.50;;;;;;5036121;28;20083;-64
2022/04/17 02:13:36;;;;;;;15.23;4.90;;;8.40;84.70;;;;;;5049823;28;20044;-64
2022/04/17 02:16:03;;;;;;;11.52;5.30;;;8.40;85.10;;;;;;5054049;28;20373;-62
2022/04/17 02:18:28;;;;;;;12.25;5.15;;;8.30;85.30;;;;;;5040410;28;20026;-65
2022/04/17 02:20:54;;;;;;;14.48;5.47;;;8.30;85.30;;;;;;5027690;28;20044;-65
2022/04/17 02:23:20;;;;;;;11.65;5.20;;;8.30;85.50;;;;;;5025635;28;20040;-65
2022/04/17 02:25:45;;;;;;;13.10;5.45;;;8.30;85.80;;;;;;5025318;28;22005;-62
2022/04/17 02:28:13;;;;;;;16.65;5.55;;;8.30;86.20;;;;;;5024893;28;20053;-63
2022/04/17 02:30:39;;;;;;;15.93;5.63;;;8.20;86.70;;;;;;5033503;28;20113;-64
2022/04/17 02:33:05;;;;;;;14.38;5.50;;;8.20;87.00;;;;;;5027186;28;20148;-63
2022/04/17 02:35:30;;;;;;;13.90;5.25;;;8.20;87.40;;;;;;5029534;28;20090;-63
2022/04/17 02:37:56;;;;;;;11.27;4.90;;;8.10;87.50;;;;;;5024635;28;20428;-63
2022/04/17 02:40:22;;;;;;;15.07;6.43;;;8.10;87.70;;;;;;5050371;28;20787;-63
2022/04/17 02:42:51;;;;;;;12.55;6.18;;;8.10;88.10;;;;;;5050861;28;20091;-62
2022/04/17 02:45:17;;;;;;;14.35;5.63;;;8.10;88.30;;;;;;5039545;28;20021;-64
2022/04/17 02:47:43;;;;;;;13.77;5.53;;;8.00;88.40;;;;;;5034691;28;20036;-62
2022/04/17 02:50:13;;;;;;;11.57;5.35;;;8.00;88.60;;;;;;5039189;28;20025;-62
2022/04/17 02:52:39;;;;;;;13.90;5.95;;;8.00;88.40;;;;;;5041514;28;20495;-64
2022/04/17 02:55:06;;;;;;;11.55;5.10;;;8.00;88.70;;;;;;5053246;28;20040;-65
2022/04/17 02:57:32;;;;;;;12.38;5.50;;;8.00;88.70;;;;;;5051303;28;20040;-62
2022/04/17 02:59:58;;;;;;;16.17;5.85;;;8.00;88.70;;;;;;5051885;28;20095;-64
2022/04/17 03:07:53;;;;;;;14.45;5.75;;;7.90;88.50;;;;;;5040398;28;20377;-65
2022/04/17 03:10:19;;;;;;;14.32;5.93;;;7.90;88.50;;;;;;5039392;28;20025;-63
2022/04/17 03:12:44;;;;;;;14.73;5.63;;;7.80;88.30;;;;;;5051817;28;20028;-63
2022/04/17 03:15:10;;;;;;;14.02;6.22;;;7.90;88.30;;;;;;5052113;28;20475;-66
2022/04/17 03:17:36;;;;;;;12.82;5.32;;;7.90;88.30;;;;;;5042571;28;20021;-63
2022/04/17 03:20:03;;;;;;;13.50;5.72;;;7.90;88.30;;;;;;5050440;28;20349;-64
2022/04/17 03:22:29;;;;;;;13.93;5.30;;;7.90;88.30;;;;;;5052444;28;20029;-65
2022/04/17 03:24:55;;;;;;;12.43;5.47;;;7.80;88.50;;;;;;5052757;28;20025;-66
2022/04/17 03:27:20;;;;;;;12.80;6.07;;;7.80;88.60;;;;;;5035116;28;20045;-65
2022/04/17 03:29:46;;;;;;;14.18;5.60;;;7.80;88.70;;;;;;5051415;28;20346;-64
2022/04/17 03:32:11;;;;;;;10.93;5.55;;;7.80;88.80;;;;;;5051681;28;20100;-64
2022/04/17 03:34:37;;;;;;;12.57;5.47;;;7.80;89.00;;;;;;5051829;28;20037;-64
2022/04/17 03:37:04;;;;;;;12.95;5.35;;;7.80;89.10;;;;;;5051423;28;20050;-63
2022/04/17 03:39:31;;;;;;;11.80;5.30;;;7.70;89.20;;;;;;5051518;28;20048;-63
2022/04/17 03:41:57;;;;;;;9.02;5.18;;;7.70;89.50;;;;;;5051542;28;20111;-65
2022/04/17 03:44:23;;;;;;;11.20;5.07;;;7.70;89.60;;;;;;5048587;28;20053;-62
2022/04/17 03:46:49;;;;;;;11.45;6.05;;;7.70;89.50;;;;;;5051244;28;20032;-65
2022/04/17 03:49:15;;;;;;;12.43;6.20;;;7.70;89.70;;;;;;5051540;28;20039;-65
2022/04/17 03:51:41;;;;;;;14.63;6.07;;;7.70;89.60;;;;;;5050142;28;20109;-62
2022/04/17 03:54:06;;;;;;;12.00;5.53;;;7.70;89.60;;;;;;5051095;28;20119;-63
2022/04/17 03:56:32;;;;;;;12.75;5.53;;;7.70;89.80;;;;;;5047986;28;20462;-65
2022/04/17 03:58:58;;;;;;;13.55;5.88;;;7.60;89.70;;;;;;5037797;28;20403;-65
2022/04/17 04:01:26;;;;;;;12.32;5.55;;;7.70;89.70;;;;;;5051471;28;20547;-65
2022/04/17 04:03:52;;;;;;;12.27;5.18;;;7.60;89.80;;;;;;5040607;28;20025;-63
2022/04/17 04:06:17;;;;;;;14.05;5.57;;;7.60;89.80;;;;;;5049045;28;20033;-62
2022/04/17 04:08:43;;;;;;;11.32;5.88;;;7.60;89.90;;;;;;5051813;28;20029;-66
2022/04/17 04:11:09;;;;;;;14.18;5.80;;;7.60;90.00;;;;;;5048654;28;20587;-64
2022/04/17 04:13:34;;;;;;;13.98;5.70;;;7.60;90.10;;;;;;5046600;28;20029;-64
2022/04/17 04:16:01;;;;;;;13.40;5.88;;;7.50;90.20;;;;;;5047384;28;20057;-64
2022/04/17 04:18:27;;;;;;;9.38;5.10;;;7.50;90.10;;;;;;5038352;28;20025;-64
2022/04/17 04:20:53;;;;;;;14.07;7.00;;;7.50;90.20;;;;;;5032737;28;20404;-63
2022/04/17 04:23:21;;;;;;;11.32;5.78;;;7.40;90.30;;;;;;5046468;28;20457;-66
2022/04/17 04:25:48;;;;;;;13.10;5.75;;;7.50;90.40;;;;;;5051810;28;20029;-64
2022/04/17 04:31:01;;;;;;;16.90;6.38;;;7.40;90.70;;;;;;5049749;28;20031;-64
2022/04/17 04:33:31;;;;;;;10.85;5.65;;;7.40;90.70;;;;;;5055306;28;20077;-63
2022/04/17 04:35:59;;;;;;;13.80;6.40;;;7.40;90.90;;;;;;5040589;28;20353;-62
2022/04/17 04:38:27;;;;;;;12.95;5.53;;;7.40;90.90;;;;;;5056358;28;20376;-66
2022/04/17 04:41:03;;;;;;;12.57;6.25;;;7.40;91.00;;;;;;5045494;28;20108;-62
2022/04/17 04:43:41;;;;;;;12.85;6.00;;;7.30;91.10;;;;;;5057990;28;20029;-63
2022/04/17 04:46:08;;;;;;;12.70;6.05;;;7.30;91.30;;;;;;5059031;28;20071;-64
2022/04/17 04:51:32;;;;;;;12.10;6.00;;;7.30;91.30;;;;;;5055918;28;20090;-64
2022/04/17 04:54:00;;;;;;;12.95;6.15;;;7.30;91.50;;;;;;5057446;28;20404;-63
2022/04/17 04:56:30;;;;;;;15.13;5.85;;;7.30;91.50;;;;;;5054991;28;20366;-65
2022/04/17 04:59:00;;;;;;;11.27;5.68;;;7.30;91.60;;;;;;5054732;28;20368;-63
2022/04/17 05:01:28;;;;;;;13.65;6.50;;;7.30;91.60;;;;;;5053376;28;20469;-65
2022/04/17 05:03:54;;;;;;;15.15;6.47;;;7.30;91.70;;;;;;5035160;28;20377;-63
2022/04/17 05:06:20;;;;;;;14.85;6.60;;;7.30;91.70;;;;;;5041505;28;20089;-65
2022/04/17 05:08:45;;;;;;;14.23;6.45;;;7.30;91.80;;;;;;5041734;28;20124;-65
2022/04/17 05:11:11;;;;;;;16.83;7.13;;;7.30;91.90;;;;;;5040979;28;20033;-65
2022/04/17 05:13:38;;;;;;;19.20;7.50;;;7.30;91.80;;;;;;5042672;28;20029;-65
2022/04/17 05:16:04;;;;;;;17.65;6.90;;;7.30;91.80;;;;;;5050133;28;20025;-64
2022/04/17 05:18:30;;;;;;;16.90;6.75;;;7.30;91.80;;;;;;5054414;28;20412;-65
2022/04/17 05:20:56;;;;;;;15.18;6.25;;;7.30;91.80;;;;;;5054165;28;20032;-64
2022/04/17 05:23:29;;;;;;;14.30;7.30;;;7.40;91.90;;;;;;5040030;28;20425;-63
2022/04/17 05:25:59;;;;;;;13.60;6.22;;;7.40;91.90;;;;;;5034872;28;20021;-63
2022/04/17 05:28:28;;;;;;;13.75;6.55;;;7.40;91.90;;;;;;5067741;28;20465;-66
2022/04/17 05:30:53;;;;;;;17.65;6.85;;;7.50;91.80;;;;;;5050304;28;20017;-63
2022/04/17 05:33:20;;;;;;;13.23;6.32;;;7.50;91.90;;;;;;5035028;28;20096;-61
2022/04/17 05:35:46;;;;;;;14.93;6.78;;;7.50;91.80;;;;;;5052459;28;20082;-64
2022/04/17 05:38:12;;;;;;;15.25;7.45;;;7.50;91.70;;;;;;5053923;28;20029;-64
2022/04/17 05:40:43;;;;;;;12.60;6.78;;;7.50;91.70;;;;;;5053036;28;20071;-65
2022/04/17 05:43:09;;;;;;;15.50;6.35;;;7.60;91.50;;;;;;5053997;28;20029;-64
2022/04/17 05:45:36;;;;;;;22.55;10.10;;;7.60;91.50;;;;;;5044194;28;20116;-62
2022/04/17 05:48:02;;;;;;;16.20;6.25;;;7.70;91.50;;;;;;5046688;28;20110;-63
2022/04/17 05:50:28;;;;;;;15.88;6.28;;;7.70;91.50;;;;;;5054758;28;20028;-66
2022/04/17 05:52:55;;;;;;;15.93;7.07;;;7.80;91.50;;;;;;5037486;28;20111;-64
2022/04/17 05:55:20;;;;;;;12.85;6.32;;;7.80;91.40;;;;;;5053356;28;20067;-63
2022/04/17 05:57:46;;;;;;;15.35;6.50;;;7.90;91.40;;;;;;5046879;28;20582;-66
2022/04/17 06:00:12;;;;;;;16.23;6.78;;;8.00;91.20;;;;;;5043838;28;20440;-63
2022/04/17 06:02:39;;;;;;;13.90;6.88;;;8.00;91.20;;;;;;5051657;28;20029;-63
2022/04/17 06:05:05;;;;;;;16.15;6.28;;;8.00;91.40;;;;;;5036571;28;20098;-61
2022/04/17 06:07:32;;;;;;;16.25;7.15;;;8.10;91.00;;;;;;5048492;28;20032;-62
2022/04/17 06:10:02;;;;;;;13.95;6.50;;;8.10;90.90;;;;;;5040568;28;20017;-64
2022/04/17 06:12:28;;;;;;;13.35;6.18;;;8.20;90.90;;;;;;5053191;28;20033;-64
2022/04/17 06:14:53;;;;;;;15.43;6.43;;;8.30;90.70;;;;;;5052552;28;20056;-62
2022/04/17 06:17:19;;;;;;;12.32;5.95;;;8.40;90.40;;;;;;5050533;28;20032;-65
2022/04/17 06:19:44;;;;;;;13.50;6.60;;;8.50;90.40;;;;;;5053069;28;20021;-64
2022/04/17 06:22:11;;;;;;;11.15;6.40;;;8.50;90.40;;;;;;5052787;28;20029;-64
2022/04/17 06:24:36;;;;;;;14.10;6.85;;;8.70;90.30;;;;;;5053969;28;20218;-64
2022/04/17 06:27:02;;;;;;;11.98;5.40;;;8.80;90.10;;;;;;5051842;28;20142;-63
2022/04/17 06:29:27;;;;;;;12.95;5.72;;;8.90;89.70;;;;;;5052295;28;20175;-63
2022/04/17 06:31:53;;;;;;;14.13;6.32;;;9.00;89.10;;;;;;5051034;28;20445;-64
2022/04/17 06:34:19;;;;;;;11.85;6.03;;;9.10;88.50;;;;;;5047517;28;20123;-65
2022/04/17 06:36:44;;;;;;;14.43;6.15;;;9.20;87.90;;;;;;5048260;28;20075;-63
2022/04/17 06:39:10;;;;;;;11.30;6.10;;;9.40;87.10;;;;;;5040551;28;20044;-65
2022/04/17 06:41:36;;;;;;;11.75;5.78;;;9.60;86.80;;;;;;5052829;28;20431;-63
2022/04/17 06:44:02;;;;;;;13.15;5.68;;;9.70;86.30;;;;;;5051958;28;20396;-63
2022/04/17 06:46:27;;;;;;;12.50;6.18;;;10.00;86.10;;;;;;5036611;28;20031;-63
2022/04/17 06:48:53;;;;;;;12.88;5.95;;;10.20;85.30;;;;;;5050956;28;20020;-67
2022/04/17 06:51:24;;;;;;;12.73;6.10;;;10.50;84.90;;;;;;5052477;28;20373;-65
2022/04/17 06:53:50;;;;;;;13.95;5.53;;;10.90;84.50;;;;;;5044103;28;20017;-66
2022/04/17 06:56:18;;;;;;;11.57;5.40;;;11.30;83.60;;;;;;5036601;28;20017;-63
2022/04/17 06:58:45;;;;;;;11.77;5.13;;;11.80;81.30;;;;;;5045980;28;20063;-65
2022/04/17 07:01:10;;;;;;;10.60;5.15;;;12.30;80.00;;;;;;5042483;28;20047;-64
2022/04/17 07:03:36;;;;;;;15.00;5.43;;;12.90;78.30;;;;;;5051148;28;20017;-65
2022/04/17 07:06:01;;;;;;;9.68;5.50;;;13.50;76.20;;;;;;5052486;28;20032;-66
2022/04/17 07:08:28;;;;;;;11.10;5.38;;;14.10;75.00;;;;;;5042257;28;20040;-64
2022/04/17 07:10:54;;;;;;;10.85;4.95;;;14.60;74.00;;;;;;5033349;28;20025;-63
2022/04/17 07:13:21;;;;;;;11.57;5.50;;;14.70;72.10;;;;;;5051822;28;20066;-65
2022/04/17 07:15:48;;;;;;;10.68;4.65;;;14.60;71.30;;;;;;5053313;28;20025;-65
2022/04/17 07:18:13;;;;;;;9.23;4.95;;;14.60;71.80;;;;;;5048564;28;20499;-63
2022/04/17 07:20:39;;;;;;;8.02;4.43;;;14.50;71.80;;;;;;5048932;28;20017;-66
2022/04/17 07:23:06;;;;;;;8.88;4.78;;;14.40;72.10;;;;;;5050733;28;20036;-66
2022/04/17 07:25:32;;;;;;;9.30;4.97;;;14.30;71.70;;;;;;5046302;28;20017;-67
2022/04/17 07:27:57;;;;;;;10.63;4.97;;;14.30;71.90;;;;;;5046827;28;20060;-66
2022/04/17 07:30:26;;;;;;;11.95;5.40;;;14.30;71.70;;;;;;5034377;28;20033;-66
2022/04/17 07:32:56;;;;;;;10.15;5.07;;;14.20;71.60;;;;;;5048190;28;20031;-66
2022/04/17 07:35:23;;;;;;;8.23;4.78;;;14.30;71.20;;;;;;5048899;28;20045;-67
2022/04/17 07:38:00;;;;;;;11.43;4.80;;;14.50;71.30;;;;;;5049790;28;20025;-65
2022/04/17 07:40:28;;;;;;;9.68;4.30;;;14.40;70.50;;;;;;5051667;28;20507;-65
2022/04/17 07:42:56;;;;;;;8.35;4.47;;;14.60;70.20;;;;;;5050482;28;20033;-64
2022/04/17 07:45:22;;;;;;;7.47;4.03;;;15.00;69.70;;;;;;5049534;28;20038;-64
2022/04/17 07:47:50;;;;;;;8.52;4.75;;;15.60;68.80;;;;;;5051058;28;20032;-64
2022/04/17 07:50:17;;;;;;;10.38;4.63;;;16.00;68.10;;;;;;5050409;28;20048;-65
2022/04/17 07:52:43;;;;;;;8.75;4.63;;;16.50;67.50;;;;;;5043065;28;20078;-65
2022/04/17 07:55:11;;;;;;;10.48;4.97;;;17.10;66.80;;;;;;5051545;28;20044;-65
2022/04/17 08:00:22;;;;;;;14.32;5.00;;;18.60;64.00;;;;;;5048379;28;20082;-62
2022/04/17 08:02:52;;;;;;;9.15;4.60;;;19.50;62.80;;;;;;5048674;28;20021;-63
2022/04/17 08:05:19;;;;;;;8.95;4.65;;;20.50;61.20;;;;;;5052094;28;20027;-62
2022/04/17 08:07:44;;;;;;;8.50;4.63;;;21.50;60.00;;;;;;5051322;28;20092;-62
2022/04/17 08:10:10;;;;;;;10.35;5.63;;;22.30;57.40;;;;;;5048665;28;20113;-63
2022/04/17 08:12:35;;;;;;;7.55;4.43;;;22.80;56.90;;;;;;5042209;28;20037;-63
2022/04/17 08:15:01;;;;;;;7.00;4.50;;;23.70;56.30;;;;;;5041913;28;20041;-62
2022/04/17 08:17:27;;;;;;;8.57;4.93;;;24.60;53.90;;;;;;5047214;28;20364;-63
2022/04/17 08:19:52;;;;;;;7.50;4.55;;;25.20;52.50;;;;;;5047869;28;20045;-63
2022/04/17 08:22:18;;;;;;;6.45;4.43;;;25.40;52.00;;;;;;5046328;28;20029;-63
2022/04/17 08:24:43;;;;;;;6.93;4.63;;;26.00;51.50;;;;;;5051005;28;20392;-64
2022/04/17 08:27:10;;;;;;;10.18;4.85;;;26.50;50.10;;;;;;5046820;28;20037;-63
2022/04/17 08:29:36;;;;;;;8.98;4.80;;;27.00;49.80;;;;;;5038571;28;20021;-62
2022/04/17 08:32:01;;;;;;;7.78;4.70;;;27.50;49.00;;;;;;5052287;28;20028;-62
2022/04/17 08:34:27;;;;;;;7.75;4.68;;;28.10;47.80;;;;;;5042885;28;20041;-62
2022/04/17 08:36:53;;;;;;;6.43;4.60;;;28.30;46.70;;;;;;5040967;28;20029;-62
2022/04/17 08:39:19;;;;;;;8.43;5.22;;;28.40;47.10;;;;;;5050575;28;20029;-63
2022/04/17 08:41:47;;;;;;;8.38;4.53;;;28.80;47.00;;;;;;5043154;28;20031;-63
2022/04/17 08:44:13;;;;;;;6.57;4.28;;;29.30;44.90;;;;;;5041712;28;20024;-63
2022/04/17 08:46:40;;;;;;;7.20;4.43;;;29.10;44.10;;;;;;5044267;28;20033;-63
2022/04/17 08:49:08;;;;;;;7.07;4.80;;;28.60;43.50;;;;;;5045505;28;20512;-63
2022/04/17 08:51:35;;;;;;;9.18;5.43;;;28.20;44.50;;;;;;5049811;28;20357;-63
2022/04/17 08:54:02;;;;;;;10.38;5.13;;;28.40;44.80;;;;;;5049128;28;20061;-63
2022/04/17 08:56:28;;;;;;;8.70;5.40;;;28.60;44.30;;;;;;5052108;28;20021;-63
2022/04/17 08:58:54;;;;;;;7.85;5.03;;;28.90;44.60;;;;;;5051904;28;20021;-63
2022/04/17 09:01:20;;;;;;;7.63;4.97;;;29.30;44.10;;;;;;5034112;28;20198;-63
2022/04/17 09:03:47;;;;;;;9.75;4.72;;;29.60;43.60;;;;;;5031705;28;20110;-63
2022/04/17 09:06:17;;;;;;;7.65;4.45;;;29.80;43.10;;;;;;5031571;28;20022;-63
2022/04/17 09:09:19;;;;;;;10.27;5.38;;;30.20;43.00;;;;;;5049255;28;20028;-62
2022/04/17 09:11:45;;;;;;;7.43;4.97;;;30.60;41.60;;;;;;5030970;28;20073;-62
2022/04/17 09:14:10;;;;;;;8.73;4.60;;;30.70;41.90;;;;;;5044381;28;20111;-62
2022/04/17 09:16:40;;;;;;;8.35;4.63;;;31.10;41.70;;;;;;5052897;28;20020;-63
2022/04/17 09:19:16;;;;;;;7.80;4.93;;;31.30;41.10;;;;;;5052620;28;20045;-62
2022/04/17 09:21:41;;;;;;;7.13;4.53;;;31.50;41.00;;;;;;5056338;28;20037;-62
2022/04/17 09:24:19;;;;;;;5.55;4.28;;;31.50;40.20;;;;;;5054243;28;20041;-63
2022/04/17 09:26:56;;;;;;;7.63;4.30;;;31.30;39.70;;;;;;5056132;28;20053;-63
2022/04/17 09:29:24;;;;;;;6.93;4.80;;;30.90;39.80;;;;;;5057672;28;20481;-63
2022/04/17 09:32:05;;;;;;;5.45;3.80;;;30.80;40.10;;;;;;5051686;28;20187;-63
2022/04/17 09:34:49;;;;;;;4.78;3.80;;;31.00;39.40;;;;;;5050860;28;20381;-63
2022/04/17 09:37:19;;;;;;;7.47;4.60;;;31.20;38.60;;;;;;5051121;28;20037;-63
2022/04/17 09:39:46;;;;;;;4.93;4.10;;;31.30;38.90;;;;;;5053302;28;20028;-63
2022/04/17 09:42:12;;;;;;;6.57;4.30;;;31.70;39.20;;;;;;5053406;28;20079;-63
2022/04/17 09:44:54;;;;;;;5.43;3.92;;;32.30;39.20;;;;;;5053692;28;20021;-63
2022/04/17 09:47:27;;;;;;;4.97;4.00;;;32.70;37.80;;;;;;5053085;28;20100;-63
2022/04/17 09:50:01;;;;;;;5.47;3.90;;;32.80;38.00;;;;;;5052556;28;20096;-62
2022/04/17 09:52:32;;;;;;;7.90;4.03;;;33.10;36.80;;;;;;5051780;28;20525;-63
2022/04/17 09:55:01;;;;;;;7.27;4.00;;;33.20;37.20;;;;;;5054399;28;20078;-63
2022/04/17 09:57:29;;;;;;;6.97;4.82;;;33.20;36.80;;;;;;5051676;28;20266;-63
2022/04/17 10:00:08;;;;;;;5.57;4.05;;;33.20;36.50;;;;;;5053919;28;20465;-63
2022/04/17 10:02:33;;;;;;;6.47;4.20;;;32.90;36.20;;;;;;5052699;28;20023;-67
2022/04/17 10:05:04;;;;;;;6.93;4.50;;;32.80;35.80;;;;;;5053873;28;20016;-63
2022/04/17 10:07:31;;;;;;;5.27;4.40;;;33.00;35.70;;;;;;5052096;28;20472;-62
2022/04/17 10:09:57;;;;;;;7.45;4.43;;;33.10;36.10;;;;;;5052854;28;20129;-62
2022/04/17 10:12:24;;;;;;;8.35;5.20;;;33.10;35.60;;;;;;5053662;28;20512;-63
2022/04/17 10:14:51;;;;;;;8.63;5.30;;;33.10;36.50;;;;;;5053995;28;20028;-63
2022/04/17 10:17:22;;;;;;;7.82;4.40;;;33.30;36.70;;;;;;5053951;28;20025;-62
2022/04/17 10:19:49;;;;;;;6.93;5.20;;;33.60;35.90;;;;;;5051239;28;20377;-63
2022/04/17 10:22:18;;;;;;;7.90;4.75;;;33.30;35.70;;;;;;5053110;28;20061;-63
2022/04/17 10:24:52;;;;;;;6.00;4.50;;;33.00;36.20;;;;;;5053979;28;20021;-63
2022/04/17 10:27:23;;;;;;;6.25;4.13;;;32.80;36.30;;;;;;5054107;28;20045;-63
2022/04/17 10:29:56;;;;;;;6.53;4.68;;;32.70;34.50;;;;;;5052964;28;20143;-63
2022/04/17 10:32:51;;;;;;;5.25;3.60;;;32.50;35.20;;;;;;5054234;28;20047;-63
2022/04/17 10:35:55;;;;;;;5.03;3.55;;;32.60;34.50;;;;;;5042272;28;20048;-63
2022/04/17 10:38:28;;;;;;;7.05;3.90;;;32.50;34.50;;;;;;5054032;28;20064;-63
2022/04/17 10:41:15;;;;;;;6.50;4.20;;;32.90;34.60;;;;;;5053251;28;20124;-64
2022/04/17 10:43:46;;;;;;;5.72;4.10;;;33.20;34.30;;;;;;5034061;28;20021;-63
2022/04/17 10:46:13;;;;;;;5.75;4.00;;;33.20;34.90;;;;;;5033719;28;20080;-63
2022/04/17 10:48:57;;;;;;;7.57;4.40;;;33.50;34.90;;;;;;5033872;28;20024;-64
2022/04/17 10:51:32;;;;;;;5.78;3.90;;;33.60;34.70;;;;;;5033917;28;20026;-63
2022/04/17 10:54:13;;;;;;;3.75;3.10;;;33.90;34.10;;;;;;5033426;28;20036;-63
2022/04/17 10:57:00;;;;;;;7.72;4.25;;;33.60;32.80;;;;;;5033810;28;20082;-63
2022/04/17 10:59:36;;;;;;;5.40;3.80;;;33.30;33.50;;;;;;5033731;28;20025;-63
2022/04/17 11:02:08;;;;;;;5.90;3.05;;;33.20;33.40;;;;;;5033766;28;20055;-63
2022/04/17 11:04:37;;;;;;;5.50;3.22;;;33.00;32.10;;;;;;5033879;28;20044;-62
2022/04/17 11:07:05;;;;;;;6.13;4.05;;;32.50;32.70;;;;;;5033519;28;20462;-63
2022/04/17 11:09:42;;;;;;;6.60;3.75;;;32.40;33.40;;;;;;5033635;28;20032;-63
2022/04/17 11:12:17;;;;;;;5.47;3.80;;;32.30;33.30;;;;;;5033537;28;20036;-63
2022/04/17 11:15:15;;;;;;;6.28;4.10;;;32.50;34.00;;;;;;5032924;28;20384;-63
2022/04/17 11:17:42;;;;;;;5.47;3.45;;;32.60;34.30;;;;;;5029916;28;20034;-63
2022/04/17 11:20:09;;;;;;;5.10;3.53;;;32.60;33.30;;;;;;5048958;28;20033;-63
2022/04/17 11:22:36;;;;;;;5.25;3.60;;;32.10;33.10;;;;;;5053329;28;20114;-62
2022/04/17 11:25:09;;;;;;;4.03;2.90;;;31.80;32.60;;;;;;5052826;28;20082;-62
2022/04/17 11:27:40;;;;;;;5.72;3.10;;;31.60;33.00;;;;;;5052686;28;20056;-62
2022/04/17 11:30:08;;;;;;;4.20;3.13;;;31.50;32.50;;;;;;5053008;28;20033;-62
2022/04/17 11:32:34;;;;;;;3.42;2.42;;;31.60;32.60;;;;;;5052307;28;20047;-63
2022/04/17 11:35:04;;;;;;;4.97;3.22;;;31.50;32.50;;;;;;5053172;28;20461;-63
2022/04/17 11:37:31;;;;;;;4.72;3.28;;;31.70;33.00;;;;;;5056880;28;20037;-62
2022/04/17 11:39:58;;;;;;;4.22;2.78;;;32.10;32.60;;;;;;5069461;28;20016;-64
2022/04/17 11:42:28;;;;;;;4.28;2.63;;;32.20;31.60;;;;;;5061358;28;20021;-64
2022/04/17 11:45:00;;;;;;;4.80;2.55;;;32.00;31.50;;;;;;5052110;28;20040;-63
2022/04/17 11:47:25;;;;;;;3.85;2.85;;;31.80;31.90;;;;;;5049320;28;20025;-65
2022/04/17 11:49:51;;;;;;;3.88;2.90;;;31.80;31.60;;;;;;5054066;28;20420;-63
2022/04/17 11:52:23;;;;;;;5.25;3.35;;;31.70;31.80;;;;;;5071268;28;20031;-63
2022/04/17 11:54:49;;;;;;;4.75;2.65;;;31.80;31.90;;;;;;5061442;28;20033;-63
2022/04/17 11:57:19;;;;;;;3.42;2.50;;;31.70;31.30;;;;;;5051358;28;20028;-66
2022/04/17 11:59:48;;;;;;;4.28;3.08;;;31.60;31.40;;;;;;5052717;28;20033;-64
2022/04/17 12:02:20;;;;;;;4.95;2.53;;;31.50;32.20;;;;;;5052423;28;20449;-64
2022/04/17 12:05:04;;;;;;;6.18;2.70;;;31.50;31.40;;;;;;5052716;28;20020;-65
2022/04/17 12:07:29;;;;;;;5.82;3.20;;;31.50;31.40;;;;;;5058652;28;20029;-63
2022/04/17 12:10:10;;;;;;;5.63;3.33;;;31.30;31.60;;;;;;5072665;28;20573;-63
2022/04/17 12:12:38;;;;;;;7.20;2.97;;;31.50;31.80;;;;;;5072057;28;20066;-63
2022/04/17 12:15:05;;;;;;;7.25;3.30;;;31.50;31.50;;;;;;5070817;28;20400;-66
2022/04/17 12:17:32;;;;;;;6.38;3.38;;;31.60;30.90;;;;;;5069008;28;20404;-64
2022/04/17 12:19:58;;;;;;;8.43;4.60;;;31.90;31.30;;;;;;5052430;28;20032;-66
2022/04/17 12:22:24;;;;;;;5.10;3.83;;;31.70;32.10;;;;;;5052411;28;20361;-62
2022/04/17 12:24:50;;;;;;;15.70;8.85;;;31.30;32.40;;;;;;5052414;28;20469;-67
2022/04/17 12:27:19;;;;;;;12.52;6.72;;;31.20;33.00;;;;;;5052378;28;20175;-62
2022/04/17 12:29:53;;;;;;;21.10;11.52;;;31.30;33.60;;;;;;5051695;28;20021;-65
2022/04/17 12:32:22;;;;;;;7.53;3.83;;;31.40;33.10;;;;;;5052344;28;20078;-64
2022/04/17 12:34:57;;;;;;;6.47;3.83;;;31.60;32.90;;;;;;5052266;28;20029;-65
2022/04/17 12:37:32;;;;;;;6.93;3.92;;;31.60;33.00;;;;;;5052492;28;20021;-64
2022/04/17 12:40:21;;;;;;;7.43;4.53;;;31.20;34.10;;;;;;5052268;28;20445;-66
2022/04/17 12:42:47;;;;;;;7.32;5.07;;;30.70;33.50;;;;;;5052054;28;20368;-63
2022/04/17 12:45:24;;;;;;;8.57;4.75;;;30.10;33.80;;;;;;5052552;28;20021;-65
2022/04/17 12:48:06;;;;;;;7.72;4.78;;;29.50;34.10;;;;;;5055661;28;20059;-64
2022/04/17 12:50:33;;;;;;;7.82;4.50;;;29.00;34.50;;;;;;5055922;28;20511;-62
2022/04/17 12:52:59;;;;;;;7.47;4.80;;;28.50;34.70;;;;;;5056032;28;20100;-62
2022/04/17 12:55:30;;;;;;;7.60;4.75;;;27.90;35.40;;;;;;5055753;28;20036;-64
2022/04/17 12:57:56;;;;;;;5.90;4.55;;;27.50;35.70;;;;;;5055932;28;20037;-64
2022/04/17 13:00:28;;;;;;;6.88;4.20;;;27.00;35.90;;;;;;5055931;28;20037;-64
2022/04/17 13:03:13;;;;;;;6.18;3.90;;;26.50;36.60;;;;;;5055986;28;20024;-66
2022/04/17 13:05:40;;;;;;;6.28;4.25;;;26.00;37.20;;;;;;5055738;28;20116;-63
2022/04/17 13:08:08;;;;;;;7.80;5.03;;;25.60;36.50;;;;;;5055660;28;20061;-63
2022/04/17 13:10:34;;;;;;;7.43;4.78;;;25.30;36.70;;;;;;5055625;28;20036;-66